createdAt,value
2023-04-24T00:01:38.092Z,12.40
2023-04-24T00:04:05.089Z,12.43
2023-04-24T00:06:34.925Z,12.41
2023-04-24T00:09:02.143Z,12.47
2023-04-24T00:11:29.238Z,12.36
2023-04-24T00:13:56.637Z,12.33
2023-04-24T00:16:23.417Z,12.23
2023-04-24T00:18:50.970Z,12.28
2023-04-24T00:21:18.762Z,12.21
2023-04-24T00:23:47.076Z,12.17
2023-04-24T00:26:13.929Z,12.04
2023-04-24T00:28:40.633Z,12.09
2023-04-24T00:31:07.218Z,12.13
2023-04-24T00:33:34.027Z,12.09
2023-04-24T00:36:01.862Z,12.01
2023-04-24T00:38:31.325Z,12.04
2023-04-24T00:40:57.771Z,12.07
2023-04-24T00:43:24.656Z,12.01
2023-04-24T00:45:51.317Z,11.90
2023-04-24T00:48:18.525Z,11.98
2023-04-24T00:50:45.206Z,11.96
2023-04-24T00:53:11.777Z,11.84
2023-04-24T00:55:38.501Z,11.87
2023-04-24T00:58:05.588Z,11.88
2023-04-24T01:00:33.014Z,11.85
2023-04-24T01:03:05.061Z,11.79
2023-04-24T01:05:32.286Z,11.86
2023-04-24T01:07:59.915Z,11.82
2023-04-24T01:10:27.260Z,11.81
2023-04-24T01:12:54.125Z,11.78
2023-04-24T01:15:21.082Z,11.75
2023-04-24T01:17:47.871Z,11.81
2023-04-24T01:20:14.705Z,11.80
2023-04-24T01:22:43.348Z,11.89
2023-04-24T01:25:10.044Z,11.87
2023-04-24T01:27:36.621Z,11.79
2023-04-24T01:30:03.461Z,11.81
2023-04-24T01:32:30.498Z,11.84
2023-04-24T01:34:57.026Z,11.85
2023-04-24T01:37:23.687Z,11.87
2023-04-24T01:39:50.530Z,11.83
2023-04-24T01:42:17.337Z,11.77
2023-04-24T01:44:44.271Z,11.84
2023-04-24T01:47:11.276Z,11.94
2023-04-24T01:49:39.751Z,12.03
2023-04-24T01:52:06.483Z,11.91
2023-04-24T01:54:32.868Z,11.94
2023-04-24T01:57:00.381Z,11.98
2023-04-24T01:59:29.079Z,12.00
2023-04-24T02:01:55.719Z,12.07
2023-04-24T02:04:22.667Z,12.04
2023-04-24T02:06:50.555Z,12.10
2023-04-24T02:09:17.286Z,12.12
2023-04-24T02:11:46.980Z,12.16
2023-04-24T02:14:13.608Z,12.09
2023-04-24T02:16:40.349Z,12.13
2023-04-24T02:19:06.878Z,12.05
2023-04-24T02:21:34.462Z,12.07
2023-04-24T02:24:01.080Z,12.00
2023-04-24T02:26:27.812Z,12.01
2023-04-24T02:28:54.489Z,12.03
2023-04-24T02:31:21.509Z,11.87
2023-04-24T02:33:48.235Z,11.93
2023-04-24T02:36:15.082Z,11.96
2023-04-24T02:38:41.615Z,11.89
2023-04-24T02:41:10.546Z,11.82
2023-04-24T02:43:37.142Z,11.89
2023-04-24T02:46:04.981Z,11.75
2023-04-24T02:48:31.669Z,11.82
2023-04-24T02:50:59.212Z,11.78
2023-04-24T02:53:26.000Z,11.76
2023-04-24T02:55:52.669Z,11.72
2023-04-24T02:58:21.240Z,11.77
2023-04-24T03:00:51.529Z,11.75
2023-04-24T03:03:19.835Z,11.71
2023-04-24T03:05:46.810Z,11.69
2023-04-24T03:08:13.257Z,11.68
2023-04-24T03:10:42.916Z,11.69
2023-04-24T03:13:12.099Z,11.73
2023-04-24T03:15:39.470Z,11.75
2023-04-24T03:18:07.609Z,11.81
2023-04-24T03:20:36.489Z,11.82
2023-04-24T03:23:04.143Z,11.77
2023-04-24T03:25:31.064Z,11.72
2023-04-24T03:27:57.639Z,11.70
2023-04-24T03:30:24.435Z,11.76
2023-04-24T03:32:51.483Z,11.79
2023-04-24T03:35:17.980Z,11.76
2023-04-24T03:37:47.733Z,11.72
2023-04-24T03:40:16.787Z,11.73
2023-04-24T03:42:43.731Z,11.83
2023-04-24T03:45:10.555Z,11.80
2023-04-24T03:47:37.286Z,11.84
2023-04-24T03:50:08.051Z,11.82
2023-04-24T03:52:35.894Z,11.86
2023-04-24T03:55:02.461Z,11.90
2023-04-24T03:57:28.909Z,11.85
2023-04-24T03:59:55.861Z,11.85
2023-04-24T04:02:22.457Z,11.79
2023-04-24T04:04:52.457Z,11.80
2023-04-24T04:07:19.436Z,11.73
2023-04-24T04:09:46.406Z,11.76
2023-04-24T04:12:14.077Z,11.80
2023-04-24T04:14:41.548Z,11.71
2023-04-24T04:17:08.082Z,11.70
2023-04-24T04:19:34.639Z,11.65
2023-04-24T04:22:01.248Z,11.69
2023-04-24T04:24:27.816Z,11.63
2023-04-24T04:26:57.687Z,11.66
2023-04-24T04:29:25.085Z,11.77
2023-04-24T04:31:51.894Z,11.87
2023-04-24T04:34:18.602Z,11.87
2023-04-24T04:36:45.341Z,11.88
2023-04-24T04:39:11.938Z,11.92
2023-04-24T04:41:38.970Z,12.01
2023-04-24T04:44:05.801Z,11.96
2023-04-24T04:46:34.243Z,11.88
2023-04-24T04:49:01.447Z,11.87
2023-04-24T04:51:28.198Z,11.90
2023-04-24T04:53:54.673Z,11.86
2023-04-24T04:56:21.082Z,11.95
2023-04-24T04:58:47.548Z,12.01
2023-04-24T05:01:14.062Z,11.92
2023-04-24T05:03:41.159Z,11.94
2023-04-24T05:06:08.091Z,11.86
2023-04-24T05:08:34.798Z,11.75
2023-04-24T05:11:01.611Z,11.76
2023-04-24T05:13:39.344Z,11.77
2023-04-24T05:16:07.761Z,11.70
2023-04-24T05:18:34.357Z,11.63
2023-04-24T05:21:01.127Z,11.48
2023-04-24T05:23:27.567Z,11.47
2023-04-24T05:25:54.084Z,11.57
2023-04-24T05:28:22.282Z,11.49
2023-04-24T05:30:48.866Z,11.27
2023-04-24T05:33:15.937Z,11.35
2023-04-24T05:35:46.772Z,11.30
2023-04-24T05:38:13.931Z,11.24
2023-04-24T05:40:40.838Z,11.25
2023-04-24T05:43:07.241Z,11.27
2023-04-24T05:45:33.716Z,11.31
2023-04-24T05:48:00.321Z,11.30
2023-04-24T05:50:27.027Z,11.35
2023-04-24T05:52:53.632Z,11.24
2023-04-24T05:55:20.933Z,11.47
2023-04-24T05:57:47.411Z,11.76
2023-04-24T06:00:14.415Z,11.71
2023-04-24T06:02:40.937Z,11.78
2023-04-24T06:05:09.871Z,11.93
2023-04-24T06:07:37.308Z,11.75
2023-04-24T06:10:05.306Z,11.76
2023-04-24T06:12:32.660Z,11.74
2023-04-24T06:14:59.279Z,11.59
2023-04-24T06:17:26.228Z,11.85
2023-04-24T06:19:52.908Z,12.14
2023-04-24T06:22:19.465Z,12.24
2023-04-24T06:24:46.141Z,11.95
2023-04-24T06:27:14.631Z,11.93
2023-04-24T06:29:42.559Z,12.19
2023-04-24T06:32:09.353Z,12.47
2023-04-24T06:34:37.972Z,13.18
2023-04-24T06:37:06.487Z,13.78
2023-04-24T06:39:33.121Z,13.11
2023-04-24T06:41:59.872Z,13.22
2023-04-24T06:44:26.753Z,12.27
2023-04-24T06:46:53.492Z,13.43
2023-04-24T06:49:20.180Z,13.73
2023-04-24T06:51:47.062Z,13.21
2023-04-24T06:54:13.882Z,13.03
2023-04-24T06:56:40.529Z,13.14
2023-04-24T06:59:07.158Z,13.30
2023-04-24T07:01:33.927Z,13.60
2023-04-24T07:04:01.220Z,14.28
2023-04-24T07:06:28.502Z,14.10
2023-04-24T07:08:59.780Z,14.83
2023-04-24T07:11:31.430Z,16.04
2023-04-24T07:13:58.181Z,17.46
2023-04-24T07:16:24.663Z,17.13
2023-04-24T07:18:51.209Z,17.60
2023-04-24T07:21:17.622Z,17.63
2023-04-24T07:23:45.090Z,17.08
2023-04-24T07:26:11.852Z,17.48
2023-04-24T07:28:38.848Z,17.62
2023-04-24T07:31:05.496Z,17.43
2023-04-24T07:33:32.211Z,16.17
2023-04-24T07:35:58.818Z,16.52
2023-04-24T07:38:27.148Z,14.32
2023-04-24T07:40:55.370Z,15.83
2023-04-24T07:43:22.601Z,15.49
2023-04-24T07:45:49.204Z,13.70
2023-04-24T07:48:17.548Z,14.32
2023-04-24T07:50:44.545Z,14.02
2023-04-24T07:53:11.602Z,13.24
2023-04-24T07:55:39.524Z,14.41
2023-04-24T07:58:06.431Z,15.03
2023-04-24T08:00:32.984Z,14.37
2023-04-24T08:03:00.056Z,14.45
2023-04-24T08:05:29.342Z,15.70
2023-04-24T08:07:56.300Z,16.61
2023-04-24T08:10:24.308Z,16.26
2023-04-24T08:12:51.444Z,15.40
2023-04-24T08:15:20.618Z,14.16
2023-04-24T08:17:47.546Z,14.58
2023-04-24T08:20:19.615Z,13.88
2023-04-24T08:22:48.331Z,14.17
2023-04-24T08:25:16.698Z,14.05
2023-04-24T08:27:43.746Z,13.82
2023-04-24T08:30:10.898Z,13.82
2023-04-24T08:32:37.689Z,16.04
2023-04-24T08:35:04.688Z,15.19
2023-04-24T08:37:32.854Z,14.97
2023-04-24T08:39:59.427Z,16.09
2023-04-24T08:42:27.692Z,17.53
2023-04-24T08:44:55.250Z,16.20
2023-04-24T08:47:23.001Z,16.12
2023-04-24T08:49:50.673Z,17.36
2023-04-24T08:52:17.529Z,16.42
2023-04-24T08:54:46.571Z,15.52
2023-04-24T08:57:15.938Z,14.88
2023-04-24T08:59:43.262Z,14.20
2023-04-24T09:02:13.580Z,14.58
2023-04-24T09:04:42.147Z,16.42
2023-04-24T09:07:11.407Z,15.49
2023-04-24T09:09:39.766Z,14.51
2023-04-24T09:12:08.023Z,14.16
2023-04-24T09:14:34.765Z,15.02
2023-04-24T09:17:01.878Z,15.17
2023-04-24T09:19:29.242Z,14.84
2023-04-24T09:21:56.350Z,14.37
2023-04-24T09:24:26.603Z,14.30
2023-04-24T09:26:59.794Z,14.76
2023-04-24T09:29:26.586Z,14.85
2023-04-24T09:31:53.095Z,14.51
2023-04-24T09:34:24.911Z,14.26
2023-04-24T09:36:52.003Z,13.17
2023-04-24T09:39:20.949Z,13.36
2023-04-24T09:41:55.597Z,14.93
2023-04-24T09:44:29.129Z,15.40
2023-04-24T09:46:59.740Z,13.83
2023-04-24T09:49:30.491Z,15.36
2023-04-24T09:52:05.212Z,15.94
2023-04-24T09:54:33.176Z,14.68
2023-04-24T09:57:01.425Z,14.75
2023-04-24T09:59:27.999Z,14.11
2023-04-24T10:01:54.952Z,13.22
2023-04-24T10:04:25.753Z,13.68
2023-04-24T10:06:53.881Z,13.83
2023-04-24T10:09:21.806Z,13.18
2023-04-24T10:11:52.357Z,13.85
2023-04-24T10:14:20.305Z,13.07
2023-04-24T10:16:48.206Z,13.01
2023-04-24T10:19:16.193Z,13.02
2023-04-24T10:21:47.236Z,13.02
2023-04-24T10:24:14.489Z,12.64
2023-04-24T10:26:42.028Z,12.57
2023-04-24T10:29:13.787Z,12.48
2023-04-24T10:31:41.180Z,13.17
2023-04-24T10:34:08.145Z,12.72
2023-04-24T10:36:36.300Z,12.69
2023-04-24T10:39:03.913Z,12.98
2023-04-24T10:41:31.470Z,13.10
2023-04-24T10:44:07.538Z,12.66
2023-04-24T10:46:34.087Z,13.18
2023-04-24T10:49:04.973Z,13.17
2023-04-24T10:51:50.026Z,13.63
2023-04-24T10:54:43.130Z,13.79
2023-04-24T10:57:22.914Z,13.78
2023-04-24T10:59:50.895Z,13.74
2023-04-24T11:02:18.430Z,13.35
2023-04-24T11:04:46.376Z,13.35
2023-04-24T11:07:13.421Z,13.93
2023-04-24T11:09:42.896Z,13.67
2023-04-24T11:12:12.215Z,13.09
2023-04-24T11:14:57.591Z,13.27
2023-04-24T11:17:38.908Z,14.14
2023-04-24T11:20:22.947Z,15.63
2023-04-24T11:22:58.779Z,16.57
2023-04-24T11:25:26.178Z,16.88
2023-04-24T11:28:03.709Z,17.79
2023-04-24T11:30:30.881Z,17.71
2023-04-24T11:33:02.945Z,16.63
2023-04-24T11:35:32.063Z,17.90
2023-04-24T11:40:29.694Z,14.81
2023-04-24T11:42:56.791Z,15.03
2023-04-24T11:45:23.346Z,15.25
2023-04-24T11:47:51.359Z,13.64
2023-04-24T11:52:53.278Z,11.29
2023-04-24T11:55:19.837Z,11.77
2023-04-24T11:57:46.885Z,13.21
2023-04-24T12:00:32.243Z,13.38
2023-04-24T12:03:09.166Z,14.68
2023-04-24T12:05:36.365Z,14.99
2023-04-24T12:08:02.943Z,14.22
2023-04-24T12:10:30.124Z,15.00
2023-04-24T12:12:57.418Z,15.66
2023-04-24T12:15:24.082Z,15.40
2023-04-24T12:17:54.119Z,14.28
2023-04-24T12:20:44.012Z,13.13
2023-04-24T12:23:10.437Z,13.56
2023-04-24T12:25:37.227Z,13.34
2023-04-24T12:28:14.035Z,12.81
2023-04-24T12:30:45.932Z,12.60
2023-04-24T12:33:12.745Z,12.96
2023-04-24T12:35:42.241Z,13.88
2023-04-24T12:38:09.474Z,14.18
2023-04-24T12:40:36.108Z,14.29
2023-04-24T12:43:02.981Z,12.90
2023-04-24T12:45:29.943Z,12.86
2023-04-24T12:47:56.513Z,12.43
2023-04-24T12:50:23.506Z,12.57
2023-04-24T12:52:50.096Z,12.91
2023-04-24T12:55:16.542Z,12.41
2023-04-24T12:57:43.597Z,12.77
2023-04-24T13:00:10.747Z,12.59
2023-04-24T13:02:37.693Z,12.16
2023-04-24T13:05:04.485Z,12.72
2023-04-24T13:07:30.969Z,12.28
2023-04-24T13:09:58.721Z,12.62
2023-04-24T13:12:25.417Z,12.67
2023-04-24T13:14:52.077Z,12.79
2023-04-24T13:17:18.648Z,12.60
2023-04-24T13:19:46.340Z,13.11
2023-04-24T13:22:13.649Z,12.65
2023-04-24T13:24:41.881Z,13.06
2023-04-24T13:27:08.521Z,13.28
2023-04-24T13:29:35.232Z,13.08
2023-04-24T13:32:01.854Z,12.81
2023-04-24T13:34:28.377Z,12.86
2023-04-24T13:36:56.048Z,12.67
2023-04-24T13:39:22.894Z,12.62
2023-04-24T13:41:49.811Z,12.82
2023-04-24T13:44:17.585Z,13.34
2023-04-24T13:46:45.706Z,13.36
2023-04-24T13:49:12.789Z,13.62
2023-04-24T13:51:39.325Z,13.56
2023-04-24T13:54:05.997Z,13.40
2023-04-24T13:56:32.442Z,13.52
2023-04-24T13:58:58.794Z,13.36
2023-04-24T14:01:25.959Z,13.18
2023-04-24T14:03:53.363Z,13.28
2023-04-24T14:06:20.406Z,13.17
2023-04-24T14:08:47.110Z,13.44
2023-04-24T14:11:13.866Z,13.23
2023-04-24T14:13:41.951Z,13.25
2023-04-24T14:16:09.069Z,13.17
2023-04-24T14:18:36.120Z,12.78
2023-04-24T14:21:02.814Z,12.98
2023-04-24T14:23:29.191Z,12.93
2023-04-24T14:25:55.768Z,13.04
2023-04-24T14:28:22.403Z,13.08
2023-04-24T14:30:49.174Z,13.05
2023-04-24T14:33:15.730Z,13.29
2023-04-24T14:35:45.579Z,13.46
2023-04-24T14:38:12.063Z,13.13
2023-04-24T14:40:58.849Z,12.81
2023-04-24T14:43:25.108Z,13.15
2023-04-24T14:45:51.596Z,13.12
2023-04-24T14:48:18.741Z,13.49
2023-04-24T14:50:46.316Z,13.51
2023-04-24T14:53:12.759Z,13.09
2023-04-24T14:55:39.351Z,13.19
2023-04-24T14:58:07.735Z,13.55
2023-04-24T15:00:34.207Z,13.69
2023-04-24T15:03:02.061Z,13.52
2023-04-24T15:05:29.230Z,13.38
2023-04-24T15:07:55.848Z,13.17
2023-04-24T15:10:24.025Z,13.07
2023-04-24T15:12:50.735Z,13.36
2023-04-24T15:15:17.198Z,12.77
2023-04-24T15:17:43.677Z,12.96
2023-04-24T15:20:10.558Z,12.84
2023-04-24T15:22:37.164Z,12.96
2023-04-24T15:25:04.084Z,12.87
2023-04-24T15:27:40.062Z,12.78
2023-04-24T15:30:07.113Z,12.88
2023-04-24T15:32:33.959Z,12.82
2023-04-24T15:35:07.640Z,12.60
2023-04-24T15:37:34.839Z,12.70
2023-04-24T15:40:01.300Z,12.82
2023-04-24T15:42:27.919Z,12.59
2023-04-24T15:44:54.309Z,12.52
2023-04-24T15:47:20.753Z,12.38
2023-04-24T15:49:47.351Z,12.15
2023-04-24T15:52:15.897Z,12.14
2023-04-24T15:54:42.563Z,12.16
2023-04-24T15:57:08.958Z,12.01
2023-04-24T15:59:35.979Z,12.14
2023-04-24T16:02:04.763Z,11.92
2023-04-24T16:04:31.666Z,12.45
2023-04-24T16:06:58.299Z,12.43
2023-04-24T16:09:24.730Z,12.58
2023-04-24T16:11:51.232Z,12.05
2023-04-24T16:14:17.664Z,12.51
2023-04-24T16:16:44.063Z,12.27
2023-04-24T16:19:10.546Z,12.17
2023-04-24T16:21:36.945Z,12.37
2023-04-24T16:24:03.398Z,12.25
2023-04-24T16:26:29.818Z,12.30
2023-04-24T16:28:56.245Z,12.18
2023-04-24T16:31:23.603Z,12.38
2023-04-24T16:33:49.973Z,12.59
2023-04-24T16:36:16.513Z,12.40
2023-04-24T16:38:42.934Z,12.29
2023-04-24T16:41:09.442Z,12.30
2023-04-24T16:43:36.033Z,12.17
2023-04-24T16:46:02.622Z,12.11
2023-04-24T16:48:28.978Z,11.93
2023-04-24T16:50:55.397Z,12.03
2023-04-24T16:53:21.950Z,12.12
2023-04-24T16:55:50.545Z,11.84
2023-04-24T16:58:17.556Z,11.67
2023-04-24T17:00:44.776Z,11.71
2023-04-24T17:03:12.793Z,11.65
2023-04-24T17:05:39.636Z,11.72
2023-04-24T17:08:06.093Z,11.82
2023-04-24T17:10:32.487Z,11.78
2023-04-24T17:13:00.307Z,11.89
2023-04-24T17:15:26.931Z,11.93
2023-04-24T17:17:53.550Z,11.51
2023-04-24T17:20:23.176Z,11.62
2023-04-24T17:22:50.146Z,11.71
2023-04-24T17:25:16.783Z,11.58
2023-04-24T17:27:43.194Z,11.60
2023-04-24T17:30:09.871Z,11.72
2023-04-24T17:32:36.267Z,11.72
2023-04-24T17:35:02.738Z,11.40
2023-04-24T17:37:29.752Z,11.50
2023-04-24T17:39:56.377Z,11.47
2023-04-24T17:42:22.859Z,11.53
2023-04-24T17:44:49.308Z,11.50
2023-04-24T17:47:15.758Z,11.41
2023-04-24T17:49:44.687Z,11.13
2023-04-24T17:52:11.809Z,10.98
2023-04-24T17:54:38.246Z,10.95
2023-04-24T17:57:04.620Z,10.64
2023-04-24T17:59:31.160Z,10.61
2023-04-24T18:01:58.411Z,10.53
2023-04-24T18:04:26.102Z,10.46
2023-04-24T18:06:52.648Z,10.50
2023-04-24T18:09:21.112Z,10.52
2023-04-24T18:11:49.198Z,10.55
2023-04-24T18:14:15.675Z,10.50
2023-04-24T18:16:42.175Z,10.33
2023-04-24T18:19:08.578Z,10.33
2023-04-24T18:21:35.035Z,10.38
2023-04-24T18:24:01.483Z,10.26
2023-04-24T18:26:27.826Z,10.19
2023-04-24T18:28:54.220Z,10.12
2023-04-24T18:31:20.890Z,10.19
2023-04-24T18:33:47.452Z,10.16
2023-04-24T18:36:13.990Z,10.01
2023-04-24T18:38:40.516Z,9.88
2023-04-24T18:41:06.871Z,9.94
2023-04-24T18:43:33.320Z,9.89
2023-04-24T18:45:59.698Z,9.85
2023-04-24T18:48:28.778Z,9.79
2023-04-24T18:50:55.407Z,9.74
2023-04-24T18:53:21.750Z,9.68
2023-04-24T18:55:48.255Z,9.61
2023-04-24T18:58:14.628Z,9.52
2023-04-24T19:00:41.404Z,9.55
2023-04-24T19:03:09.257Z,9.37
2023-04-24T19:05:35.901Z,9.32
2023-04-24T19:08:02.346Z,9.23
2023-04-24T19:10:29.122Z,9.21
2023-04-24T19:12:56.934Z,9.10
2023-04-24T19:15:24.159Z,9.03
2023-04-24T19:17:51.702Z,8.96
2023-04-24T19:20:21.337Z,8.96
2023-04-24T19:22:47.866Z,8.93
2023-04-24T19:25:14.292Z,8.87
2023-04-24T19:27:40.719Z,8.89
2023-04-24T19:30:07.513Z,8.89
2023-04-24T19:32:33.936Z,8.86
2023-04-24T19:35:00.762Z,8.73
2023-04-24T19:37:27.201Z,8.83
2023-04-24T19:39:53.618Z,8.82
2023-04-24T19:42:25.719Z,8.76
2023-04-24T19:44:58.598Z,8.63
2023-04-24T19:47:25.023Z,8.79
2023-04-24T19:49:51.759Z,8.72
2023-04-24T19:52:18.238Z,8.72
2023-04-24T19:54:44.692Z,8.67
2023-04-24T19:57:11.149Z,8.58
2023-04-24T19:59:37.537Z,8.65
2023-04-24T20:02:04.069Z,8.60
2023-04-24T20:04:31.114Z,8.66
2023-04-24T20:06:59.496Z,8.60
2023-04-24T20:09:26.045Z,8.67
2023-04-24T20:11:53.670Z,8.61
2023-04-24T20:14:20.426Z,8.56
2023-04-24T20:16:46.844Z,8.51
2023-04-24T20:19:13.249Z,8.60
2023-04-24T20:21:39.653Z,8.58
2023-04-24T20:24:08.702Z,8.65
2023-04-24T20:26:36.287Z,8.55
2023-04-24T20:29:04.060Z,8.51
2023-04-24T20:31:30.808Z,8.48
2023-04-24T20:33:57.284Z,8.37
2023-04-24T20:36:23.703Z,8.28
2023-04-24T20:38:50.471Z,8.26
2023-04-24T20:41:17.244Z,8.29
2023-04-24T20:43:43.809Z,8.28
2023-04-24T20:46:10.938Z,8.21
2023-04-24T20:48:37.500Z,8.17
2023-04-24T20:51:04.082Z,8.17
2023-04-24T20:53:30.533Z,8.08
2023-04-24T20:55:56.960Z,8.02
2023-04-24T20:58:24.401Z,8.12
2023-04-24T21:00:51.446Z,8.07
2023-04-24T21:03:17.993Z,8.11
2023-04-24T21:05:44.450Z,8.00
2023-04-24T21:08:10.976Z,8.05
2023-04-24T21:10:37.376Z,8.01
2023-04-24T21:13:03.891Z,7.98
2023-04-24T21:15:30.862Z,7.91
2023-04-24T21:17:57.352Z,7.89
2023-04-24T21:20:23.766Z,7.89
2023-04-24T21:22:50.977Z,7.75
2023-04-24T21:25:17.405Z,7.79
2023-04-24T21:27:43.933Z,7.78
2023-04-24T21:30:11.519Z,7.78
2023-04-24T21:32:39.381Z,7.79
2023-04-24T21:35:06.210Z,7.75
2023-04-24T21:37:33.691Z,7.68
2023-04-24T21:40:00.066Z,7.65
2023-04-24T21:42:26.952Z,7.67
2023-04-24T21:44:53.329Z,7.61
2023-04-24T21:47:19.856Z,7.65
2023-04-24T21:49:46.234Z,7.62
2023-04-24T21:52:12.601Z,7.72
2023-04-24T21:54:39.044Z,7.81
2023-04-24T21:57:05.609Z,7.71
2023-04-24T21:59:31.993Z,7.75
2023-04-24T22:01:58.886Z,7.74
2023-04-24T22:04:25.816Z,7.74
2023-04-24T22:06:54.263Z,7.72
2023-04-24T22:09:21.605Z,7.68
2023-04-24T22:11:48.290Z,7.67
2023-04-24T22:14:14.995Z,7.68
2023-04-24T22:16:46.014Z,7.59
2023-04-24T22:19:12.396Z,7.62
2023-04-24T22:21:39.454Z,7.62
2023-04-24T22:24:06.084Z,7.57
2023-04-24T22:26:32.595Z,7.60
2023-04-24T22:28:59.017Z,7.59
2023-04-24T22:31:25.550Z,7.64
2023-04-24T22:33:52.276Z,7.63
2023-04-24T22:36:18.764Z,7.63
2023-04-24T22:38:45.174Z,7.65
2023-04-24T22:41:11.666Z,7.62
2023-04-24T22:43:38.438Z,7.51
2023-04-24T22:46:04.848Z,7.52
2023-04-24T22:48:32.773Z,7.56
2023-04-24T22:50:59.226Z,7.54
2023-04-24T22:53:26.197Z,7.60
2023-04-24T22:55:52.744Z,7.55
2023-04-24T22:58:19.114Z,7.53
2023-04-24T23:00:45.715Z,7.39
2023-04-24T23:03:12.394Z,7.46
2023-04-24T23:05:39.054Z,7.39
2023-04-24T23:08:05.444Z,7.41
2023-04-24T23:10:32.084Z,7.41
2023-04-24T23:12:58.513Z,7.53
2023-04-24T23:15:24.915Z,7.47
2023-04-24T23:17:51.658Z,7.49
2023-04-24T23:20:18.057Z,7.46
2023-04-24T23:22:44.389Z,7.58
2023-04-24T23:25:11.100Z,7.46
2023-04-24T23:27:37.483Z,7.57
2023-04-24T23:30:04.651Z,7.51
2023-04-24T23:32:31.073Z,7.49
2023-04-24T23:34:57.474Z,7.56
2023-04-24T23:37:24.179Z,7.50
2023-04-24T23:39:51.084Z,7.56
2023-04-24T23:42:17.490Z,7.51
2023-04-24T23:44:44.089Z,7.55
2023-04-24T23:47:10.593Z,7.51
2023-04-24T23:49:37.795Z,7.53
2023-04-24T23:52:04.488Z,7.49
2023-04-24T23:54:30.943Z,7.46
2023-04-24T23:56:57.343Z,7.50
2023-04-24T23:59:23.858Z,7.38
